KHDN

Yampa Valley Airport

Hayden, Colorado, USA
METAR KHDN 170156Z AUTO 00000KT 10SM CLR M03/M08 A2982 RMK AO2 SLP128 T10281083 FZRANO
Observed Flight Rules
Dec-17 @ 01:56 UTC (32 minutes ago) Visual Flight Rules
Wind Visibility Clouds
Calm 10 miles
  • Clear skies
Temperatures Readings
Current -3°C / 27°F
Dewpoint -8°C / 18°F
Humidity 69%
Altimeter 29.82" Hg
Pressure 1012.8 hPa
Elevation 2012
METAR KHDN 170156Z AUTO 00000KT 10SM CLR M03/M08 A2982 RMK AO2 SLP128 T10281083 FZRANO
Observed Flight Rules
Dec-17 @ 01:56 UTC
(32 minutes ago)
VFR
Wind Visibility
Calm 10 miles
Clouds
  • Clear skies
Temperature Dewpoint
-3°C / 27°F -8°C / 18°F
Humidity Altimeter Pressure
69% 29.82" Hg 1012.8 hPa